METAR Data
IDs: Format: Raw Decoded Include TAF

Data at: 2225 UTC 25 Oct 2021

KSLR 252215Z AUTO 07005KT 10SM CLR 30/07 A2995 RMK AO2 T03000074
KSLR 252155Z AUTO 08005KT 10SM CLR 30/08 A2995 RMK AO2 T03010075
KSLR 252135Z AUTO 10005KT 10SM CLR 31/07 A2995 RMK AO2 T03050073
KSLR 252115Z AUTO 05004KT 10SM CLR 30/07 A2995 RMK AO2 T03030069
KSLR 252055Z AUTO 07005KT 7SM CLR 30/07 A2996 RMK AO2 T03030066
KSLR 252035Z AUTO 06004KT 10SM CLR 30/07 A2996 RMK AO2 T03010070
KSLR 252015Z AUTO 07006KT 10SM CLR 30/07 A2995 RMK AO2 T03000070
KSLR 251955Z AUTO 08006KT 10SM CLR 30/07 A2996 RMK AO2 T03010066
KSLR 251935Z AUTO 05005KT 10SM CLR 30/08 A2996 RMK AO2 T02960079
KSLR 251915Z AUTO 02005KT 10SM CLR 30/08 A2997 RMK AO2 T02950082
KSLR 251855Z AUTO 06007KT 10SM CLR 30/08 A2998 RMK AO2 T02950082
KSLR 251835Z AUTO 07005KT 10SM CLR 29/07 A2999 RMK AO2 T02870071
KSLR 251815Z AUTO 08008KT 10SM CLR 29/08 A3000 RMK AO2 T02900081
KSLR 251755Z AUTO 10006KT 10SM CLR 28/09 A3000 RMK AO2 T02840088 10284 20155
KSLR 251735Z AUTO 07004KT 10SM CLR 28/08 A3001 RMK AO2 T02780081
KSLR 251715Z AUTO 08005KT 10SM CLR 27/10 A3002 RMK AO2 T02730097
KSLR 251655Z AUTO 06006KT 10SM CLR 27/09 A3002 RMK AO2 T02650092
KSLR 251635Z AUTO 08004KT 10SM CLR 26/11 A3002 RMK AO2 T02570109
KSLR 251615Z AUTO 08005KT 10SM CLR 26/11 A3002 RMK AO2 T02550113
KSLR 251555Z AUTO 09006KT 10SM CLR 25/12 A3002 RMK AO2 T02450115
KSLR 251535Z AUTO 11004KT 10SM CLR 24/12 A3002 RMK AO2 T02350117
KSLR 251515Z AUTO 09006KT 10SM CLR 22/13 A3002 RMK AO2 T02220131
KSLR 251455Z AUTO 09003KT 10SM CLR 21/14 A3002 RMK AO2 T02120140
KSLR 251435Z AUTO 00000KT 10SM CLR 20/14 A3003 RMK AO2 T02000140
KSLR 251415Z AUTO 11003KT 10SM CLR 19/15 A3002 RMK AO2 T01920145
KSLR 251355Z AUTO 00000KT 10SM CLR 18/15 A3001 RMK AO2 T01770145
KSLR 251335Z AUTO 00000KT 10SM CLR 17/14 A3000 RMK AO2 T01680144
KSLR 251315Z AUTO 00000KT 10SM CLR 16/14 A2999 RMK AO2 T01600137
KSLR 251255Z AUTO 03003KT 10SM CLR 16/14 A2999 RMK AO2 T01550141
KSLR 251235Z AUTO 03004KT 10SM CLR 16/14 A2999 RMK AO2 T01550143
KSLR 251215Z AUTO 03005KT 10SM CLR 16/14 A2998 RMK AO2 T01600143
KSLR 251155Z AUTO 02003KT 10SM CLR 17/15 A2998 RMK AO2 T01660148 10221 20165
KSLR 251135Z AUTO 02005KT 10SM CLR 17/14 A2997 RMK AO2 T01670140
KSLR 251115Z AUTO 00000KT 10SM CLR 18/14 A2998 RMK AO2 T01750141
KSLR 251055Z AUTO 00000KT 10SM CLR 17/14 A2997 RMK AO2 T01740142
KSLR 251035Z AUTO 00000KT 10SM CLR 18/14 A2997 RMK AO2 T01750142
KSLR 251015Z AUTO 05003KT 10SM CLR 18/14 A2996 RMK AO2 T01750143
KSLR 250955Z AUTO 00000KT 10SM CLR 19/15 A2996 RMK AO2 T01850146
KSLR 250935Z AUTO 02003KT 10SM CLR 18/15 A2996 RMK AO2 T01800146
KSLR 250915Z AUTO 35004KT 10SM CLR 19/15 A2996 RMK AO2 T01890146
KSLR 250855Z AUTO 35004KT 10SM CLR 19/15 A2996 RMK AO2 T01890147
KSLR 250835Z AUTO 34004KT 10SM CLR 19/15 A2995 RMK AO2 T01900150
KSLR 250815Z AUTO 34005KT 10SM CLR 20/15 A2994 RMK AO2 T01950154
KSLR 250755Z AUTO 33003KT 10SM CLR 20/16 A2994 RMK AO2 T02000155
KSLR 250735Z AUTO 33005KT 10SM CLR 20/16 A2994 RMK AO2 T02010157
KSLR 250715Z AUTO 33005KT 10SM CLR 21/16 A2993 RMK AO2 T02060160
KSLR 250655Z AUTO 33005KT 10SM CLR 21/16 A2993 RMK AO2 T02110164
KSLR 250635Z AUTO 33007KT 10SM CLR 22/17 A2993 RMK AO2 T02150173
KSLR 250615Z AUTO 32006KT 10SM CLR 22/19 A2992 RMK AO2 T02170188
KSLR 250555Z AUTO 31006KT 10SM CLR 22/20 A2992 RMK AO2 T02210195 10266 20217 402950198
KSLR 250535Z AUTO 29005KT 10SM SCT047 22/20 A2992 RMK AO2 T02170200
KSLR 250515Z AUTO 26004KT 10SM SCT047 22/19 A2991 RMK AO2 T02230193
KSLR 250455Z AUTO 25004KT 10SM CLR 23/19 A2991 RMK AO2 T02300193
KSLR 250435Z AUTO 24004KT 10SM SCT075 23/19 A2990 RMK AO2 T02320193
KSLR 250415Z AUTO 24003KT 10SM SCT075 23/19 A2990 RMK AO2 T02320192
KSLR 250355Z AUTO 22003KT 10SM SCT090 23/19 A2988 RMK AO2 T02330192
KSLR 250335Z AUTO 23004KT 10SM SCT050 SCT060 BKN090 24/19 A2988 RMK AO2 T02400192
KSLR 250315Z AUTO 28004KT 10SM BKN055 BKN070 BKN080 24/20 A2988 RMK AO2 T02380196
KSLR 250255Z AUTO 31005KT 10SM BKN065 OVC070 25/19 A2987 RMK AO2 T02450193
KSLR 250235Z AUTO 19005KT 10SM BKN080 OVC100 25/19 A2984 RMK AO2 T02500188
KSLR 250215Z AUTO 19004KT 10SM BKN100 25/19 A2984 RMK AO2 T02460188
KSLR 250155Z AUTO 19005KT 10SM CLR 24/19 A2984 RMK AO2 T02430187
KSLR 250135Z AUTO 17004KT 10SM CLR 25/19 A2983 RMK AO2 T02510185
KSLR 250115Z AUTO 17006KT 10SM CLR 26/18 A2982 RMK AO2 T02550184
KSLR 250055Z AUTO 17005KT 10SM CLR 26/18 A2982 RMK AO2 T02550183
KSLR 250035Z AUTO 18005KT 10SM CLR 26/18 A2981 RMK AO2 T02590181
KSLR 250015Z AUTO 19007KT 10SM CLR 26/18 A2981 RMK AO2 T02630181
KSLR 242355Z AUTO 20008KT 10SM CLR 27/18 A2981 RMK AO2 T02670180 10295 20265
KSLR 242335Z AUTO 22007KT 10SM CLR 27/18 A2982 RMK AO2 T02710178
KSLR 242315Z AUTO 19010KT 10SM SCT060 28/18 A2981 RMK AO2 T02770175
KSLR 242255Z AUTO 22010G14KT 10SM BKN060 29/18 A2981 RMK AO2 T02880175
KSLR 242235Z AUTO 22009KT 10SM SCT044 BKN060 28/18 A2981 RMK AO2 T02840176
KSLR 242215Z AUTO 22013G20KT 10SM SCT044 BKN050 29/18 A2981 RMK AO2 T02870175
KSLR 242155Z AUTO 19011G19KT 10SM SCT044 SCT050 29/18 A2980 RMK AO2 T02920177
KSLR 242135Z AUTO 18015G19KT 10SM SCT044 BKN050 29/18 A2979 RMK AO2 T02940177
KSLR 242115Z AUTO 19016G21KT 10SM BKN044 OVC050 29/18 A2980 RMK AO2 T02850176
KSLR 242055Z AUTO 19017G20KT 10SM SCT044 OVC049 29/18 A2980 RMK AO2 T02910179
KSLR 242035Z AUTO 20017G22KT 10SM SCT041 OVC049 29/18 A2980 RMK AO2 T02910176
KSLR 242015Z AUTO 20015G22KT 10SM BKN041 BKN049 BKN055 29/18 A2980 RMK AO2 T02880177
KSLR 241955Z AUTO 20018G24KT 10SM SCT039 BKN048 30/18 A2980 RMK AO2 T02950180
KSLR 241935Z AUTO 20017G21KT 10SM SCT035 BKN042 BKN049 29/18 A2981 RMK AO2 T02860183
KSLR 241915Z AUTO 18015G23KT 10SM SCT035 BKN042 BKN049 29/18 A2981 RMK AO2 T02860180
KSLR 241855Z AUTO 20016G22KT 10SM SCT033 BKN043 BKN049 29/18 A2983 RMK AO2 T02870184
KSLR 241835Z AUTO 20012KT 10SM SCT031 SCT041 28/19 A2984 RMK AO2 T02810189
KSLR 241815Z AUTO 20015G19KT 10SM SCT027 SCT033 SCT041 28/19 A2984 RMK AO2 T02760190
KSLR 241755Z AUTO 19014G22KT 10SM SCT028 SCT033 BKN041 27/19 A2986 RMK AO2 T02700192 10270 20198
KSLR 241735Z AUTO 21018G24KT 10SM BKN025 BKN031 27/19 A2987 RMK AO2 T02660192
KSLR 241715Z AUTO 20015G20KT 10SM BKN023 26/19 A2988 RMK AO2 T02630192
KSLR 241655Z AUTO 19014G20KT 10SM BKN021 BKN037 26/20 A2989 RMK AO2 T02600196
KSLR 241635Z AUTO 22010KT 10SM SCT019 OVC035 25/19 A2990 RMK AO2 T02460194
KSLR 241615Z AUTO 21014G19KT 10SM BKN019 OVC033 24/19 A2990 RMK AO2 T02370191
KSLR 241555Z AUTO 20012G16KT 10SM OVC017 24/19 A2990 RMK AO2 T02350189
KSLR 241535Z AUTO 21014G19KT 10SM BKN017 OVC036 23/19 A2990 RMK AO2 T02320188
KSLR 241515Z AUTO 21011KT 10SM SCT015 BKN034 23/19 A2990 RMK AO2 T02320186
KSLR 241455Z AUTO 19008KT 10SM OVC032 22/18 A2990 RMK AO2 T02200184
KSLR 241435Z AUTO 19011G16KT 10SM OVC032 22/18 A2991 RMK AO2 T02150182
KSLR 241415Z AUTO 18008KT 10SM SCT034 BKN039 22/18 A2991 RMK AO2 T02160183
KSLR 241355Z AUTO 20010KT 10SM SCT039 21/18 A2991 RMK AO2 T02050181
KSLR 241330Z AUTO 20009KT 10SM CLR 21/18 A2990 RMK AO2 T02050183
KSLR 241315Z AUTO 19007KT 10SM CLR 20/18 A2989 RMK AO2 T02000182
KSLR 241255Z AUTO 18008KT 10SM BKN026 20/18 A2989 RMK AO2 T02000182
KSLR 241230Z AUTO 18005KT 10SM SCT024 20/18 A2988 RMK AO2 T01980181
KSLR 241215Z AUTO 18006KT 10SM SCT022 20/18 A2988 RMK AO2 T01980181
KSLR 241155Z AUTO 18007KT 10SM CLR 20/18 A2987 RMK AO2 T02000180 10235 20200
KSLR 241135Z AUTO 17008KT 10SM CLR 20/18 A2987 RMK AO2 T02000180
KSLR 241115Z AUTO 17006KT 10SM CLR 20/18 A2986 RMK AO2 T02010180
KSLR 241055Z AUTO 17007KT 10SM CLR 20/18 A2986 RMK AO2 T02020180
KSLR 241035Z AUTO 18007KT 10SM CLR 20/18 A2986 RMK AO2 T02030180